Time;durP1;ratioP1;P1;durP2;ratioP2;P2;SDS_P1;SDS_P2;PMS_P1;PMS_P2;Temp;Humidity;BMP_temperature;BMP_pressure;BME280_temperature;BME280_humidity;BME280_pressure;Samples;Min_cycle;Max_cycle;Signal;HPM_P1;HPM_P2
2022/01/20 00:00:16;;;;;;;9.73;6.60;;;3.80;99.90;;;;;;5050765;28;20851;-49
2022/01/20 00:02:43;;;;;;;12.97;9.03;;;3.90;99.90;;;;;;5075348;28;20491;-49
2022/01/20 00:05:25;;;;;;;8.17;5.03;;;3.90;99.90;;;;;;5066951;28;20482;-49
2022/01/20 00:08:06;;;;;;;7.07;4.20;;;3.80;99.90;;;;;;5062234;28;21062;-49
2022/01/20 00:27:02;;;;;;;8.73;5.47;;;4.00;99.90;;;;;;4997303;28;20561;-49
2022/01/20 00:29:34;;;;;;;12.47;5.60;;;4.00;99.90;;;;;;5037405;28;20481;-50
2022/01/20 00:32:07;;;;;;;8.37;5.07;;;4.10;99.90;;;;;;5044483;28;20856;-49
2022/01/20 00:35:09;;;;;;;3.37;3.03;;;4.10;99.90;;;;;;5031024;28;20749;-49
2022/01/20 00:37:35;;;;;;;6.73;3.60;;;4.10;99.90;;;;;;5039949;28;20522;-50
2022/01/20 00:40:02;;;;;;;17.53;7.90;;;4.10;99.90;;;;;;5055311;28;20463;-49
2022/01/20 00:42:28;;;;;;;6.53;5.67;;;4.20;99.90;;;;;;5053815;28;20255;-48
2022/01/20 00:44:56;;;;;;;7.20;5.00;;;4.10;99.90;;;;;;5055209;28;20555;-49
2022/01/20 00:47:23;;;;;;;11.70;4.30;;;4.10;99.90;;;;;;5056910;28;20474;-49
2022/01/20 00:49:51;;;;;;;4.67;3.40;;;4.10;99.90;;;;;;5062309;28;20499;-50
2022/01/20 00:52:17;;;;;;;7.70;5.47;;;4.10;99.90;;;;;;5054150;28;20496;-50
2022/01/20 00:54:44;;;;;;;8.30;4.23;;;4.00;99.90;;;;;;5051699;28;20484;-51
2022/01/20 00:57:11;;;;;;;7.83;3.80;;;4.00;99.90;;;;;;5061171;28;20475;-49
2022/01/20 00:59:38;;;;;;;6.70;5.20;;;4.00;99.90;;;;;;5051522;28;20485;-49
2022/01/20 01:02:08;;;;;;;7.60;5.10;;;4.10;99.90;;;;;;5073271;28;20536;-49
2022/01/20 01:04:36;;;;;;;7.00;5.83;;;4.00;99.90;;;;;;5053700;28;20570;-49
2022/01/20 01:09:53;;;;;;;10.77;7.90;;;4.00;99.90;;;;;;5032257;28;20493;-49
2022/01/20 01:12:29;;;;;;;16.50;9.07;;;4.00;99.90;;;;;;5057276;28;20489;-49
2022/01/20 01:14:56;;;;;;;12.27;7.60;;;4.00;99.90;;;;;;5047077;28;20501;-49
2022/01/20 01:20:16;;;;;;;9.10;7.67;;;4.00;99.90;;;;;;5046557;28;20490;-49
2022/01/20 01:22:44;;;;;;;9.90;7.57;;;4.00;99.90;;;;;;5083486;28;20569;-49
2022/01/20 01:25:11;;;;;;;9.97;7.20;;;4.00;99.90;;;;;;5080097;28;20538;-49
2022/01/20 01:27:40;;;;;;;12.53;10.27;;;4.10;99.90;;;;;;5077340;27;20556;-49
2022/01/20 01:30:19;;;;;;;8.43;5.33;;;4.10;99.90;;;;;;5106853;27;20467;-49
2022/01/20 01:32:51;;;;;;;12.53;8.90;;;4.10;99.90;;;;;;5079134;28;20478;-49
2022/01/20 01:35:21;;;;;;;13.57;9.03;;;4.20;99.90;;;;;;5077473;28;20501;-49
2022/01/20 01:40:35;;;;;;;12.90;9.13;;;4.20;99.90;;;;;;5080726;28;20511;-50
2022/01/20 01:43:10;;;;;;;21.50;11.23;;;4.20;99.90;;;;;;5082451;28;20475;-56
2022/01/20 01:45:40;;;;;;;16.87;9.27;;;4.20;99.90;;;;;;5081710;28;20497;-47
2022/01/20 01:48:08;;;;;;;22.43;13.40;;;4.20;99.90;;;;;;5076381;28;21093;-47
2022/01/20 01:50:35;;;;;;;11.83;8.53;;;4.20;99.90;;;;;;5079193;28;20470;-47
2022/01/20 01:53:04;;;;;;;17.87;11.03;;;4.20;99.90;;;;;;5056879;28;20536;-47
2022/01/20 01:55:32;;;;;;;8.87;7.20;;;4.30;99.90;;;;;;5067170;28;20476;-46
2022/01/20 01:57:59;;;;;;;16.37;11.90;;;4.30;99.90;;;;;;5063455;28;20552;-46
2022/01/20 02:00:26;;;;;;;13.63;7.70;;;4.30;99.90;;;;;;5062334;28;20479;-47
2022/01/20 02:02:53;;;;;;;14.80;7.57;;;4.30;99.90;;;;;;5064052;28;21120;-47
2022/01/20 02:05:22;;;;;;;15.23;9.83;;;4.40;99.90;;;;;;5065454;28;20497;-47
2022/01/20 02:18:54;;;;;;;15.97;10.10;;;4.30;99.90;;;;;;5057771;28;20514;-47
2022/01/20 02:21:22;;;;;;;20.80;11.10;;;4.40;99.90;;;;;;5049932;28;20491;-47
2022/01/20 02:23:49;;;;;;;17.87;10.23;;;4.40;99.90;;;;;;5060460;28;20970;-48
2022/01/20 02:26:17;;;;;;;16.00;9.97;;;4.50;99.90;;;;;;5054635;28;20486;-47
2022/01/20 02:28:46;;;;;;;17.10;11.10;;;4.50;99.90;;;;;;5069252;28;20480;-47
2022/01/20 02:31:13;;;;;;;16.63;10.47;;;4.50;99.90;;;;;;5055014;28;21458;-47
2022/01/20 02:33:40;;;;;;;14.00;9.33;;;4.60;99.90;;;;;;5053879;28;20601;-47
2022/01/20 02:36:11;;;;;;;16.90;10.00;;;4.60;99.90;;;;;;5062835;28;20488;-46
2022/01/20 02:38:43;;;;;;;13.77;7.87;;;4.60;99.90;;;;;;5061880;28;21195;-47
2022/01/20 02:46:40;;;;;;;17.30;9.33;;;4.70;99.90;;;;;;5059971;28;20532;-46
2022/01/20 02:49:08;;;;;;;12.50;7.70;;;4.60;99.90;;;;;;5058373;28;20982;-46
2022/01/20 02:51:35;;;;;;;14.37;9.30;;;4.70;99.90;;;;;;5058719;28;21079;-46
2022/01/20 02:54:03;;;;;;;11.30;7.57;;;4.60;99.90;;;;;;5063531;27;20480;-46
2022/01/20 02:56:32;;;;;;;16.83;10.50;;;4.70;99.90;;;;;;5071528;28;21030;-47
2022/01/20 02:58:58;;;;;;;15.00;9.30;;;4.70;99.90;;;;;;5051791;28;20487;-46
2022/01/20 03:01:25;;;;;;;13.30;9.30;;;4.70;99.90;;;;;;5072015;28;21003;-46
2022/01/20 03:03:52;;;;;;;14.63;8.90;;;4.70;99.90;;;;;;5058227;28;21010;-47
2022/01/20 03:06:19;;;;;;;12.80;8.37;;;4.80;99.90;;;;;;5058780;28;20490;-46
2022/01/20 03:08:45;;;;;;;18.40;10.43;;;4.80;99.90;;;;;;5057911;28;20484;-48
2022/01/20 03:11:13;;;;;;;15.83;10.13;;;4.80;99.90;;;;;;5064420;28;20526;-47
2022/01/20 03:13:40;;;;;;;13.80;9.47;;;4.90;99.90;;;;;;5056629;28;20540;-48
2022/01/20 03:16:07;;;;;;;13.40;8.37;;;5.00;99.90;;;;;;5069578;28;20864;-46
2022/01/20 03:18:34;;;;;;;19.97;9.87;;;5.00;99.90;;;;;;5061721;28;20478;-47
2022/01/20 03:21:01;;;;;;;11.47;7.90;;;5.00;99.90;;;;;;5063938;28;20483;-47
2022/01/20 03:23:28;;;;;;;14.10;9.83;;;5.10;99.90;;;;;;5051072;28;20490;-47
2022/01/20 03:25:55;;;;;;;14.90;10.47;;;5.10;99.90;;;;;;5055164;28;20483;-46
2022/01/20 03:28:23;;;;;;;17.80;10.87;;;5.10;99.90;;;;;;5060906;28;21229;-47
2022/01/20 03:30:50;;;;;;;20.00;11.50;;;5.10;99.90;;;;;;5062062;28;21065;-47
2022/01/20 03:33:17;;;;;;;15.33;10.40;;;5.20;99.90;;;;;;5062158;28;20498;-47
2022/01/20 03:35:44;;;;;;;15.87;9.80;;;5.20;99.90;;;;;;5061589;28;20489;-47
2022/01/20 03:38:11;;;;;;;21.33;12.83;;;5.20;99.90;;;;;;5051751;28;20962;-46
2022/01/20 03:40:37;;;;;;;25.87;12.83;;;5.30;99.90;;;;;;5053645;28;20486;-48
2022/01/20 03:43:05;;;;;;;26.33;11.60;;;5.30;99.90;;;;;;5053803;28;20516;-46
2022/01/20 03:45:33;;;;;;;17.30;11.27;;;5.30;99.90;;;;;;5050803;28;21092;-46
2022/01/20 03:48:07;;;;;;;20.47;11.60;;;5.30;99.90;;;;;;5058567;28;20487;-47
2022/01/20 03:53:18;;;;;;;21.20;11.60;;;5.40;99.90;;;;;;5041540;28;20520;-46
2022/01/20 03:55:45;;;;;;;30.73;12.97;;;5.40;99.90;;;;;;5057188;28;20519;-47
2022/01/20 03:58:13;;;;;;;23.87;12.33;;;5.40;99.90;;;;;;5058779;28;20534;-46
2022/01/20 04:00:41;;;;;;;21.77;12.60;;;5.50;99.90;;;;;;5046383;28;21246;-46
2022/01/20 04:03:08;;;;;;;27.03;13.13;;;5.50;99.90;;;;;;5053599;28;20511;-47
2022/01/20 04:05:38;;;;;;;19.13;11.70;;;5.50;99.90;;;;;;5052637;28;20511;-47
2022/01/20 04:08:06;;;;;;;20.07;11.20;;;5.40;99.90;;;;;;5055229;27;20487;-47
2022/01/20 04:10:33;;;;;;;16.07;10.10;;;5.40;99.90;;;;;;5100979;27;20511;-47
2022/01/20 04:13:00;;;;;;;19.07;11.40;;;5.40;99.90;;;;;;5060141;28;20485;-47
2022/01/20 04:15:36;;;;;;;21.20;11.30;;;5.30;99.90;;;;;;5061200;28;20480;-46
2022/01/20 04:18:04;;;;;;;28.53;13.00;;;5.30;99.90;;;;;;5052292;28;20521;-48
2022/01/20 04:20:31;;;;;;;19.40;12.10;;;5.30;99.90;;;;;;5060756;28;20470;-46
2022/01/20 04:22:58;;;;;;;19.20;12.63;;;5.30;99.90;;;;;;5054555;28;20489;-47
2022/01/20 04:25:25;;;;;;;25.10;11.57;;;5.20;99.90;;;;;;5058213;28;20477;-47
2022/01/20 04:27:51;;;;;;;16.23;10.83;;;5.20;99.90;;;;;;5057095;28;20476;-47
2022/01/20 04:30:18;;;;;;;19.83;10.50;;;5.20;99.90;;;;;;5057333;28;20485;-46
2022/01/20 04:32:45;;;;;;;20.10;10.30;;;5.20;99.90;;;;;;5056218;28;20483;-47
2022/01/20 04:35:16;;;;;;;23.23;12.13;;;5.20;99.90;;;;;;5053327;28;20491;-47
2022/01/20 04:37:43;;;;;;;25.33;13.20;;;5.20;99.90;;;;;;5055331;28;20471;-46
2022/01/20 04:40:10;;;;;;;20.90;9.43;;;5.20;99.90;;;;;;5055071;28;20814;-47
2022/01/20 04:42:38;;;;;;;15.40;9.73;;;5.10;99.90;;;;;;5058346;28;20480;-52
2022/01/20 04:45:10;;;;;;;21.27;12.63;;;5.10;99.90;;;;;;5063391;28;20485;-46
2022/01/20 04:47:44;;;;;;;20.27;11.20;;;5.10;99.90;;;;;;5055317;28;20517;-46
2022/01/20 04:58:25;;;;;;;26.70;11.80;;;5.10;99.90;;;;;;5050460;28;21585;-46
2022/01/20 05:00:52;;;;;;;23.60;10.67;;;5.10;99.90;;;;;;5049766;28;20517;-47
2022/01/20 05:03:18;;;;;;;27.00;10.60;;;5.00;99.90;;;;;;5068397;28;20484;-46
2022/01/20 05:05:46;;;;;;;19.57;10.97;;;5.00;99.90;;;;;;5059843;28;20499;-47
2022/01/20 05:08:17;;;;;;;28.63;12.83;;;5.00;99.90;;;;;;5061498;28;20510;-47
2022/01/20 05:10:43;;;;;;;29.00;12.97;;;4.90;99.90;;;;;;5056821;28;20502;-47
2022/01/20 05:13:21;;;;;;;26.70;12.00;;;4.80;99.90;;;;;;5055830;28;20485;-46
2022/01/20 05:15:48;;;;;;;25.87;11.60;;;4.70;99.90;;;;;;5079655;28;20483;-46
2022/01/20 05:18:15;;;;;;;20.30;10.90;;;4.50;99.90;;;;;;5085778;28;20478;-46
2022/01/20 05:20:42;;;;;;;31.30;12.83;;;4.40;99.90;;;;;;5077709;28;20511;-47
2022/01/20 05:23:10;;;;;;;21.67;12.90;;;4.40;99.90;;;;;;5078993;28;20529;-46
2022/01/20 05:25:37;;;;;;;22.10;11.80;;;4.40;99.90;;;;;;5082736;28;20487;-47
2022/01/20 05:28:04;;;;;;;23.80;12.63;;;4.30;99.90;;;;;;5088320;27;20526;-46
2022/01/20 05:30:30;;;;;;;26.07;12.83;;;4.30;99.90;;;;;;5078246;28;20540;-46
2022/01/20 05:32:58;;;;;;;23.77;11.70;;;4.30;99.90;;;;;;5073544;28;20507;-46
2022/01/20 05:35:25;;;;;;;28.93;14.60;;;4.40;99.90;;;;;;5058879;28;21055;-46
2022/01/20 05:37:51;;;;;;;23.73;11.60;;;4.50;99.90;;;;;;5056244;28;20535;-46
2022/01/20 05:40:20;;;;;;;23.60;12.17;;;4.50;99.90;;;;;;5060935;28;20491;-46
2022/01/20 05:42:47;;;;;;;22.93;11.47;;;4.50;99.90;;;;;;5064063;27;20536;-46
2022/01/20 05:45:13;;;;;;;31.53;13.77;;;4.40;99.90;;;;;;5078462;27;20570;-46
2022/01/20 05:47:44;;;;;;;28.83;13.40;;;4.10;99.90;;;;;;5092833;28;20478;-51
2022/01/20 05:50:13;;;;;;;28.90;14.20;;;3.90;99.90;;;;;;5081229;28;20943;-51
2022/01/20 05:52:41;;;;;;;37.07;14.00;;;3.80;99.90;;;;;;5079518;28;20481;-46
2022/01/20 05:55:10;;;;;;;33.03;14.40;;;3.60;99.90;;;;;;5060378;28;20491;-46
2022/01/20 05:57:38;;;;;;;35.73;14.57;;;3.40;99.90;;;;;;5048480;28;20517;-45
2022/01/20 06:00:06;;;;;;;29.90;14.70;;;3.40;99.90;;;;;;5058018;28;20482;-46
2022/01/20 06:02:36;;;;;;;24.63;10.17;;;3.40;99.90;;;;;;5059234;28;20493;-46
2022/01/20 06:05:04;;;;;;;23.20;11.70;;;3.40;99.90;;;;;;5054105;28;20484;-46
2022/01/20 06:07:30;;;;;;;32.33;11.60;;;3.50;99.90;;;;;;5051851;28;20491;-46
2022/01/20 06:09:57;;;;;;;30.27;11.30;;;3.50;99.90;;;;;;5057331;28;21023;-46
2022/01/20 06:12:24;;;;;;;28.13;13.17;;;3.60;99.90;;;;;;5060130;28;20992;-49
2022/01/20 06:14:52;;;;;;;17.97;10.10;;;3.60;99.90;;;;;;5061867;28;20796;-46
2022/01/20 06:17:26;;;;;;;27.83;12.47;;;3.70;99.90;;;;;;5060374;28;21265;-46
2022/01/20 06:19:53;;;;;;;29.00;12.13;;;3.70;99.90;;;;;;5050137;28;20480;-46
2022/01/20 06:22:20;;;;;;;33.10;9.60;;;3.80;99.90;;;;;;5060588;28;20479;-51
2022/01/20 06:24:47;;;;;;;27.20;10.50;;;3.80;99.90;;;;;;5051413;28;20496;-46
2022/01/20 06:27:14;;;;;;;22.70;9.30;;;3.90;99.90;;;;;;5058186;28;20488;-46
2022/01/20 06:29:40;;;;;;;22.73;10.60;;;3.90;99.90;;;;;;5064241;28;20947;-48
2022/01/20 06:32:09;;;;;;;26.07;11.30;;;3.90;99.90;;;;;;5057810;28;21286;-46
2022/01/20 06:34:36;;;;;;;26.67;9.97;;;3.90;99.90;;;;;;5060941;28;20500;-47
2022/01/20 06:37:03;;;;;;;19.97;9.23;;;3.90;99.90;;;;;;5061069;28;20483;-50
2022/01/20 06:39:30;;;;;;;24.03;10.30;;;3.90;99.90;;;;;;5061836;28;20473;-46
2022/01/20 06:41:56;;;;;;;27.43;9.90;;;4.00;99.90;;;;;;5062614;28;20876;-46
2022/01/20 06:44:23;;;;;;;16.70;9.20;;;4.00;99.90;;;;;;5056168;28;20528;-46
2022/01/20 06:46:50;;;;;;;25.63;12.17;;;4.00;99.90;;;;;;5060324;28;20993;-47
2022/01/20 06:49:18;;;;;;;19.57;10.53;;;4.00;99.90;;;;;;5066266;28;20482;-46
2022/01/20 06:51:45;;;;;;;29.00;11.57;;;4.10;99.90;;;;;;5061484;28;20482;-46
2022/01/20 06:54:12;;;;;;;16.37;9.67;;;4.10;99.90;;;;;;5060072;28;21526;-47
2022/01/20 06:56:41;;;;;;;21.30;10.20;;;4.10;99.90;;;;;;5058556;28;20510;-46
2022/01/20 06:59:09;;;;;;;17.73;9.87;;;4.10;99.90;;;;;;5056745;28;20484;-46
2022/01/20 07:01:36;;;;;;;18.47;9.20;;;4.10;99.90;;;;;;5059588;28;20529;-46
2022/01/20 07:04:03;;;;;;;22.70;11.07;;;4.20;99.90;;;;;;5061824;28;20491;-46
2022/01/20 07:06:31;;;;;;;24.40;10.93;;;4.20;99.90;;;;;;5053573;28;20526;-46
2022/01/20 07:08:58;;;;;;;33.90;10.23;;;4.20;99.90;;;;;;5061011;28;20483;-46
2022/01/20 07:11:25;;;;;;;23.70;10.07;;;4.20;99.90;;;;;;5056992;28;20479;-46
2022/01/20 07:13:51;;;;;;;22.10;9.37;;;4.20;99.90;;;;;;5048101;28;20493;-47
2022/01/20 07:16:18;;;;;;;27.90;7.53;;;4.10;99.90;;;;;;5098628;27;20486;-45
2022/01/20 07:18:45;;;;;;;15.50;7.00;;;4.10;99.90;;;;;;5054436;28;20496;-46
2022/01/20 07:21:12;;;;;;;27.53;8.57;;;4.10;99.90;;;;;;5038571;28;21209;-46
2022/01/20 07:23:40;;;;;;;12.07;6.00;;;4.20;99.90;;;;;;5056384;28;20534;-46
2022/01/20 07:26:07;;;;;;;16.80;8.43;;;4.10;99.90;;;;;;5040974;28;20533;-47
2022/01/20 07:28:33;;;;;;;24.47;9.63;;;4.10;99.90;;;;;;5063646;28;20484;-46
2022/01/20 07:31:00;;;;;;;18.60;8.70;;;4.10;99.90;;;;;;5053598;28;20475;-46
2022/01/20 07:33:27;;;;;;;12.33;5.30;;;4.10;99.90;;;;;;5050134;28;20545;-48
2022/01/20 07:35:54;;;;;;;23.83;8.27;;;4.10;99.90;;;;;;5053208;28;20479;-46
2022/01/20 07:38:21;;;;;;;19.00;9.17;;;4.00;99.90;;;;;;5050357;28;20479;-46
2022/01/20 07:40:50;;;;;;;22.13;11.17;;;4.00;99.90;;;;;;5050042;28;20544;-47
2022/01/20 07:43:16;;;;;;;19.87;9.00;;;4.00;99.90;;;;;;5049987;28;20500;-46
2022/01/20 07:45:43;;;;;;;12.43;7.70;;;4.00;99.90;;;;;;5041512;28;20540;-47
2022/01/20 07:48:10;;;;;;;13.50;8.73;;;4.00;99.90;;;;;;5062821;28;20516;-47
2022/01/20 07:50:37;;;;;;;10.07;6.00;;;4.00;99.90;;;;;;5051654;28;20532;-47
2022/01/20 07:53:04;;;;;;;23.23;7.37;;;4.00;99.90;;;;;;5055507;28;21243;-46
2022/01/20 07:55:31;;;;;;;26.83;9.10;;;4.00;99.90;;;;;;5045172;28;20541;-47
2022/01/20 07:58:00;;;;;;;17.87;8.53;;;4.00;99.90;;;;;;5067353;28;20537;-47
2022/01/20 08:00:27;;;;;;;25.53;9.13;;;4.00;99.90;;;;;;5038717;28;20528;-47
2022/01/20 08:02:54;;;;;;;24.53;11.60;;;4.10;99.90;;;;;;5052802;28;20545;-46
2022/01/20 08:05:20;;;;;;;21.30;7.37;;;4.00;99.90;;;;;;5044064;28;20839;-49
2022/01/20 08:07:48;;;;;;;30.00;10.67;;;4.10;99.90;;;;;;5065483;28;20477;-47
2022/01/20 08:10:15;;;;;;;21.67;9.87;;;4.10;99.90;;;;;;5046290;28;20485;-47
2022/01/20 08:12:43;;;;;;;31.33;8.30;;;4.20;99.90;;;;;;5028145;28;20510;-47
2022/01/20 08:15:12;;;;;;;26.00;8.30;;;4.20;99.90;;;;;;5045543;28;20584;-46
2022/01/20 08:17:39;;;;;;;18.23;6.43;;;4.20;99.90;;;;;;5034766;28;20488;-47
2022/01/20 08:20:08;;;;;;;15.27;7.77;;;4.30;99.90;;;;;;5045672;28;20542;-46
2022/01/20 08:22:35;;;;;;;20.97;10.97;;;4.30;99.90;;;;;;5046460;28;20640;-47
2022/01/20 08:25:02;;;;;;;23.47;7.53;;;4.30;99.90;;;;;;5042528;28;20482;-47
2022/01/20 08:27:28;;;;;;;22.97;8.50;;;4.40;99.90;;;;;;5046752;28;20528;-47
2022/01/20 08:29:55;;;;;;;19.00;10.00;;;4.40;99.90;;;;;;5047182;28;20950;-46
2022/01/20 08:32:23;;;;;;;26.80;8.10;;;4.40;99.90;;;;;;5047023;28;20946;-47
2022/01/20 08:34:50;;;;;;;17.00;8.00;;;4.40;99.90;;;;;;5043205;28;20884;-47
2022/01/20 08:37:16;;;;;;;15.63;8.27;;;4.40;99.90;;;;;;5055710;28;20946;-47
2022/01/20 08:39:44;;;;;;;33.37;9.70;;;;;;;;;;5046633;28;20565;-47
2022/01/20 08:42:12;;;;;;;23.03;8.90;;;4.40;99.90;;;;;;5045713;28;20986;-47
2022/01/20 08:44:40;;;;;;;19.30;8.20;;;4.50;99.90;;;;;;5041327;28;20485;-47
2022/01/20 08:47:15;;;;;;;18.63;9.13;;;4.50;99.90;;;;;;5050941;28;21036;-47
2022/01/20 08:49:44;;;;;;;17.17;7.77;;;4.40;99.90;;;;;;5030649;28;20530;-46
2022/01/20 08:52:10;;;;;;;14.07;5.83;;;4.40;99.90;;;;;;5069053;28;20896;-47
2022/01/20 08:54:37;;;;;;;24.47;8.90;;;4.40;99.90;;;;;;5064141;28;20475;-49
2022/01/20 08:57:04;;;;;;;15.93;8.87;;;4.40;99.90;;;;;;5065440;28;20559;-47
2022/01/20 08:59:31;;;;;;;20.60;9.47;;;4.40;99.90;;;;;;5071280;28;20485;-46
2022/01/20 09:01:58;;;;;;;21.87;9.37;;;4.30;99.90;;;;;;5066770;28;20517;-46
2022/01/20 09:04:25;;;;;;;19.50;6.83;;;4.40;99.90;;;;;;5073846;28;20474;-47
2022/01/20 09:06:53;;;;;;;23.57;8.70;;;4.40;99.90;;;;;;5065345;28;20485;-47
2022/01/20 09:09:20;;;;;;;24.00;8.80;;;4.40;99.90;;;;;;5067940;28;20730;-47
2022/01/20 09:12:03;;;;;;;34.10;8.30;;;4.40;99.90;;;;;;5073138;27;20477;-46
2022/01/20 09:17:14;;;;;;;16.77;8.17;;;4.50;99.90;;;;;;5026864;28;20487;-46
2022/01/20 09:19:41;;;;;;;26.70;10.03;;;4.60;99.90;;;;;;5047608;28;20480;-46
2022/01/20 09:22:09;;;;;;;14.43;7.70;;;4.60;99.90;;;;;;5047264;28;20483;-46
2022/01/20 09:24:36;;;;;;;18.00;8.00;;;4.60;99.90;;;;;;5044115;28;20484;-46
2022/01/20 09:27:03;;;;;;;23.47;9.73;;;4.50;99.90;;;;;;5040466;28;20487;-47
2022/01/20 09:29:29;;;;;;;27.57;11.73;;;4.60;99.90;;;;;;5048096;28;20911;-47
2022/01/20 09:31:56;;;;;;;26.40;11.70;;;4.50;99.90;;;;;;5046898;28;20850;-46
2022/01/20 09:34:24;;;;;;;21.20;10.33;;;4.50;99.90;;;;;;5049581;28;21158;-46
2022/01/20 09:36:51;;;;;;;17.07;8.10;;;4.50;99.90;;;;;;5047008;28;21058;-45
2022/01/20 09:39:19;;;;;;;19.47;9.20;;;4.50;99.90;;;;;;5057213;28;20473;-45
2022/01/20 09:41:46;;;;;;;24.77;9.73;;;4.50;99.90;;;;;;5065969;28;20484;-47
2022/01/20 09:44:13;;;;;;;21.60;11.37;;;4.60;99.90;;;;;;5059285;28;20484;-46
2022/01/20 09:46:41;;;;;;;21.00;7.10;;;4.70;99.90;;;;;;5061913;28;21356;-46
2022/01/20 09:49:09;;;;;;;37.03;9.10;;;4.70;99.90;;;;;;5062187;28;20574;-46
2022/01/20 09:51:35;;;;;;;29.27;9.17;;;4.80;99.90;;;;;;5067687;28;20545;-46
2022/01/20 09:54:03;;;;;;;15.43;9.13;;;4.80;99.90;;;;;;5069192;27;20480;-47
2022/01/20 09:56:31;;;;;;;27.93;11.50;;;4.90;99.90;;;;;;5082001;27;20477;-47
2022/01/20 09:58:58;;;;;;;19.00;8.47;;;4.90;99.90;;;;;;5044827;28;20474;-45
2022/01/20 10:01:35;;;;;;;14.70;7.80;;;5.00;99.90;;;;;;5067501;28;20490;-46
2022/01/20 10:04:02;;;;;;;26.40;10.77;;;5.00;99.90;;;;;;5021756;28;20467;-46
2022/01/20 10:06:29;;;;;;;28.00;10.67;;;5.00;99.90;;;;;;5034656;28;21295;-46
2022/01/20 10:08:59;;;;;;;28.30;10.27;;;;;;;;;;5035809;28;20552;-46
2022/01/20 10:11:26;;;;;;;12.50;8.40;;;5.20;99.90;;;;;;5045356;28;20479;-46
2022/01/20 10:13:57;;;;;;;21.87;9.33;;;5.20;99.90;;;;;;5045720;28;20467;-46
2022/01/20 10:16:23;;;;;;;24.03;11.07;;;5.30;99.90;;;;;;5031263;28;20561;-47
2022/01/20 10:18:53;;;;;;;21.30;8.50;;;5.30;99.90;;;;;;5042976;28;20488;-46
2022/01/20 10:21:27;;;;;;;19.30;9.87;;;5.40;99.90;;;;;;5043174;28;20499;-45
2022/01/20 10:23:54;;;;;;;20.67;6.80;;;5.50;99.90;;;;;;5035728;28;20544;-46
2022/01/20 10:26:23;;;;;;;15.07;7.20;;;5.50;99.90;;;;;;5026194;28;20502;-46
2022/01/20 10:28:56;;;;;;;20.77;7.30;;;;;;;;;;5045172;28;20478;-47
2022/01/20 10:31:49;;;;;;;15.47;7.37;;;5.60;99.90;;;;;;5045988;28;20481;-48
2022/01/20 10:34:28;;;;;;;12.70;7.50;;;5.70;99.90;;;;;;5018008;28;20466;-48
2022/01/20 10:36:56;;;;;;;8.03;4.47;;;5.70;99.90;;;;;;5062447;27;20521;-46
2022/01/20 10:39:28;;;;;;;27.73;6.53;;;5.70;99.90;;;;;;5070222;27;20618;-50
2022/01/20 10:41:59;;;;;;;19.90;7.07;;;5.70;99.90;;;;;;5062499;28;20934;-47
2022/01/20 10:44:28;;;;;;;15.47;5.97;;;5.80;99.90;;;;;;5058555;28;20573;-47
2022/01/20 10:46:58;;;;;;;17.73;7.57;;;5.80;99.90;;;;;;5058841;28;20482;-48
2022/01/20 10:49:31;;;;;;;11.30;6.87;;;5.80;99.90;;;;;;5065453;28;20487;-51
2022/01/20 10:52:00;;;;;;;15.77;9.00;;;5.80;99.90;;;;;;5073724;28;20956;-47
2022/01/20 10:54:34;;;;;;;13.10;6.20;;;5.90;99.90;;;;;;5066866;28;20902;-51
2022/01/20 10:57:01;;;;;;;11.30;5.27;;;5.90;99.80;;;;;;5069613;28;20524;-46
2022/01/20 10:59:29;;;;;;;22.13;9.30;;;6.00;99.80;;;;;;5066577;28;20990;-47
2022/01/20 11:02:01;;;;;;;8.53;5.60;;;6.10;99.90;;;;;;5069103;28;20557;-46
2022/01/20 11:04:28;;;;;;;9.07;4.20;;;6.20;99.90;;;;;;5043688;28;20475;-46
2022/01/20 11:06:58;;;;;;;19.57;5.53;;;6.20;99.70;;;;;;5041954;28;20892;-47
2022/01/20 11:09:27;;;;;;;7.70;5.00;;;6.30;99.60;;;;;;5052571;28;21308;-47
2022/01/20 11:11:56;;;;;;;6.60;5.20;;;6.30;99.50;;;;;;5047123;28;20480;-47
2022/01/20 11:14:23;;;;;;;19.13;5.87;;;6.30;99.50;;;;;;5058798;28;20460;-47
2022/01/20 11:16:51;;;;;;;11.00;6.33;;;6.40;99.90;;;;;;5059158;28;20543;-47
2022/01/20 11:19:20;;;;;;;8.77;5.40;;;6.50;99.80;;;;;;5050207;28;21071;-47
2022/01/20 11:21:47;;;;;;;17.53;4.93;;;6.50;99.50;;;;;;5063572;28;21011;-47
2022/01/20 11:24:19;;;;;;;15.40;5.97;;;6.50;99.30;;;;;;5054061;28;20539;-47
2022/01/20 11:26:50;;;;;;;14.93;6.10;;;6.60;99.20;;;;;;5063980;28;20481;-47
2022/01/20 11:29:17;;;;;;;9.27;5.20;;;6.70;99.70;;;;;;5056892;28;20969;-47
2022/01/20 11:31:44;;;;;;;7.87;4.63;;;6.80;99.60;;;;;;5056671;28;20509;-47
2022/01/20 11:34:16;;;;;;;6.57;4.10;;;6.90;99.40;;;;;;5061503;28;20920;-46
2022/01/20 11:36:43;;;;;;;3.43;2.70;;;6.80;99.20;;;;;;5053953;28;20527;-46
2022/01/20 11:39:10;;;;;;;10.37;2.93;;;6.80;98.50;;;;;;5060726;28;21378;-46
2022/01/20 11:41:40;;;;;;;9.03;1.87;;;6.40;97.50;;;;;;5060147;28;20485;-46
2022/01/20 11:44:12;;;;;;;3.73;2.13;;;6.30;98.00;;;;;;5062278;28;20629;-46
2022/01/20 11:46:40;;;;;;;8.03;3.33;;;6.00;97.70;;;;;;5065640;28;20468;-46
2022/01/20 11:49:10;;;;;;;8.57;2.60;;;5.90;98.20;;;;;;5054763;28;20572;-47
2022/01/20 11:51:47;;;;;;;3.03;1.97;;;5.80;98.60;;;;;;5073313;28;20475;-46
2022/01/20 11:54:18;;;;;;;10.80;3.30;;;5.80;98.80;;;;;;5061489;27;20495;-47
2022/01/20 11:56:46;;;;;;;7.70;2.83;;;5.80;98.80;;;;;;5065316;27;20557;-47
2022/01/20 11:59:14;;;;;;;11.33;3.00;;;;;;;;;;5034355;28;20472;-47
2022/01/20 12:01:47;;;;;;;3.73;2.80;;;5.80;98.20;;;;;;5057836;28;20494;-47
2022/01/20 12:04:14;;;;;;;4.83;2.03;;;5.80;98.10;;;;;;5044192;28;20485;-47
2022/01/20 12:06:44;;;;;;;4.53;1.43;;;6.00;99.10;;;;;;5047171;28;20485;-47
2022/01/20 12:09:13;;;;;;;2.40;1.40;;;6.10;98.70;;;;;;5049986;28;21545;-47
2022/01/20 12:11:41;;;;;;;6.23;2.27;;;6.10;98.50;;;;;;5050014;28;20561;-46
2022/01/20 12:14:09;;;;;;;8.43;2.20;;;6.20;98.30;;;;;;5045400;28;20480;-47
2022/01/20 12:16:37;;;;;;;9.90;1.60;;;6.20;97.90;;;;;;5048178;28;20480;-48
2022/01/20 12:19:08;;;;;;;2.23;0.80;;;6.20;97.40;;;;;;5036223;28;20489;-46
2022/01/20 12:21:35;;;;;;;7.50;2.53;;;6.10;97.60;;;;;;5032090;28;21533;-46
2022/01/20 12:24:02;;;;;;;3.40;1.20;;;6.10;97.10;;;;;;5028371;28;20485;-51
2022/01/20 12:26:35;;;;;;;4.20;1.43;;;6.10;97.20;;;;;;5045043;28;20488;-46
2022/01/20 12:29:04;;;;;;;6.37;1.67;;;6.10;97.00;;;;;;5024374;28;20478;-46
2022/01/20 12:31:31;;;;;;;6.00;2.00;;;6.10;97.20;;;;;;5030462;28;20986;-46
2022/01/20 12:33:58;;;;;;;9.63;2.20;;;6.10;97.00;;;;;;5039665;28;20696;-47
2022/01/20 12:36:25;;;;;;;5.47;2.83;;;6.10;96.90;;;;;;5059257;27;20534;-46
2022/01/20 12:38:53;;;;;;;8.07;4.93;;;6.10;96.80;;;;;;5045098;28;20498;-46
2022/01/20 12:41:22;;;;;;;18.67;2.67;;;6.20;97.20;;;;;;5043111;28;20477;-46
2022/01/20 12:43:53;;;;;;;5.30;1.87;;;6.20;96.60;;;;;;5047849;28;20903;-46
2022/01/20 12:46:23;;;;;;;8.37;3.20;;;6.20;95.90;;;;;;5034897;28;20491;-46
2022/01/20 12:48:59;;;;;;;17.47;2.33;;;6.30;96.10;;;;;;5048810;28;20489;-47
2022/01/20 12:51:35;;;;;;;2.93;1.60;;;6.40;96.20;;;;;;5053734;28;21090;-46
2022/01/20 12:54:05;;;;;;;8.27;2.53;;;6.40;95.90;;;;;;5048638;28;20481;-47
2022/01/20 12:56:34;;;;;;;7.80;2.13;;;6.50;96.30;;;;;;5040597;28;20623;-47
2022/01/20 12:59:02;;;;;;;6.60;1.40;;;6.60;95.60;;;;;;5040379;28;20533;-46
2022/01/20 13:01:39;;;;;;;16.13;3.73;;;6.60;95.30;;;;;;5043651;28;21046;-47
2022/01/20 13:04:08;;;;;;;4.33;1.57;;;6.50;94.70;;;;;;5040043;28;20483;-47
2022/01/20 13:06:35;;;;;;;3.00;2.30;;;6.60;95.60;;;;;;5036613;28;20490;-46
2022/01/20 13:09:05;;;;;;;7.63;2.80;;;6.70;95.90;;;;;;5039779;28;20545;-49
2022/01/20 13:11:36;;;;;;;6.20;2.17;;;6.60;94.30;;;;;;5050111;28;20479;-47
2022/01/20 13:14:05;;;;;;;9.50;1.77;;;6.60;93.40;;;;;;5048444;28;20954;-46
2022/01/20 13:16:32;;;;;;;5.70;1.50;;;6.50;93.30;;;;;;5059939;28;20482;-47
2022/01/20 13:19:02;;;;;;;7.00;2.27;;;6.50;93.10;;;;;;5060160;28;21140;-47
2022/01/20 13:21:40;;;;;;;7.77;2.63;;;6.60;93.60;;;;;;5058728;28;20487;-47
2022/01/20 13:24:09;;;;;;;4.50;2.60;;;6.60;93.30;;;;;;5064138;28;21009;-47
2022/01/20 13:26:48;;;;;;;16.23;2.80;;;6.70;94.00;;;;;;5060475;28;20482;-46
2022/01/20 13:29:17;;;;;;;5.00;1.60;;;6.80;93.80;;;;;;5060517;28;20480;-47
2022/01/20 13:31:44;;;;;;;10.67;2.37;;;6.90;94.00;;;;;;5066068;28;21065;-46
2022/01/20 13:34:13;;;;;;;8.80;2.20;;;7.00;94.30;;;;;;5068055;28;20491;-46
2022/01/20 13:36:42;;;;;;;7.77;1.67;;;7.10;93.90;;;;;;5078901;27;20516;-47
2022/01/20 13:39:10;;;;;;;9.47;2.10;;;7.10;92.90;;;;;;5060198;28;21062;-47
2022/01/20 13:41:37;;;;;;;4.00;1.60;;;7.10;93.10;;;;;;5058870;28;20466;-47
2022/01/20 13:47:11;;;;;;;5.73;1.70;;;7.30;93.70;;;;;;5061486;28;20558;-47
2022/01/20 13:49:49;;;;;;;14.50;2.07;;;7.40;92.20;;;;;;5049704;28;21057;-46
2022/01/20 13:52:19;;;;;;;4.37;1.53;;;7.50;92.70;;;;;;5061505;28;20476;-47